Terminal Aerodrome Forecast
Issued by NWS Portland, OR

Home | Current Version | Previous Version | Text Only | Print | Product List | Glossary On
Versions: 1 2 3 4 5 6 7 8 9 10 11 12 13 14
000
FTUS46 KPQR 152325
TAFAST
TAF
KAST 152325Z 1600/1624 31010KT P6SM -SHRA SCT035 OVC050
     FM160200 30010KT P6SM VCSH BKN035
     FM161000 27006KT P6SM BKN035
     FM161700 VRB03KT P6SM OVC025=

USA.gov is the U.S. government's official web portal to all federal, state and local government web resources and services.